sensor_id;sensor_type;location;lat;lon;timestamp;P1;durP1;ratioP1;P2;durP2;ratioP2
22565;SDS011;11449;51.330;19.378;2022-12-07T00:00:40;25.25;;;14.25;;
22565;SDS011;11449;51.330;19.378;2022-12-07T00:05:43;26.37;;;14.10;;
22565;SDS011;11449;51.330;19.378;2022-12-07T00:10:44;45.23;;;17.00;;
22565;SDS011;11449;51.330;19.378;2022-12-07T00:15:45;56.33;;;19.20;;
22565;SDS011;11449;51.330;19.378;2022-12-07T00:20:46;23.80;;;14.13;;
22565;SDS011;11449;51.330;19.378;2022-12-07T00:25:47;69.87;;;19.48;;
22565;SDS011;11449;51.330;19.378;2022-12-07T00:30:49;28.73;;;14.10;;
22565;SDS011;11449;51.330;19.378;2022-12-07T00:36:00;22.58;;;12.35;;
22565;SDS011;11449;51.330;19.378;2022-12-07T00:40:58;32.33;;;14.30;;
22565;SDS011;11449;51.330;19.378;2022-12-07T00:46:01;25.08;;;12.15;;
22565;SDS011;11449;51.330;19.378;2022-12-07T00:51:02;22.43;;;12.10;;
22565;SDS011;11449;51.330;19.378;2022-12-07T00:56:10;20.88;;;12.18;;
22565;SDS011;11449;51.330;19.378;2022-12-07T01:01:09;18.62;;;10.70;;
22565;SDS011;11449;51.330;19.378;2022-12-07T01:06:13;18.50;;;9.98;;
22565;SDS011;11449;51.330;19.378;2022-12-07T01:11:19;17.52;;;10.13;;
22565;SDS011;11449;51.330;19.378;2022-12-07T01:16:23;16.15;;;9.85;;
22565;SDS011;11449;51.330;19.378;2022-12-07T01:21:27;15.63;;;8.93;;
22565;SDS011;11449;51.330;19.378;2022-12-07T01:26:30;17.85;;;9.45;;
22565;SDS011;11449;51.330;19.378;2022-12-07T01:31:31;15.83;;;8.35;;
22565;SDS011;11449;51.330;19.378;2022-12-07T01:36:34;16.90;;;9.05;;
22565;SDS011;11449;51.330;19.378;2022-12-07T01:41:37;28.40;;;12.47;;
22565;SDS011;11449;51.330;19.378;2022-12-07T01:46:41;17.02;;;10.68;;
22565;SDS011;11449;51.330;19.378;2022-12-07T01:51:44;17.45;;;9.50;;
22565;SDS011;11449;51.330;19.378;2022-12-07T01:56:52;15.50;;;9.43;;
22565;SDS011;11449;51.330;19.378;2022-12-07T02:01:55;16.07;;;8.93;;
22565;SDS011;11449;51.330;19.378;2022-12-07T02:06:56;17.10;;;8.93;;
22565;SDS011;11449;51.330;19.378;2022-12-07T02:11:58;15.18;;;8.98;;
22565;SDS011;11449;51.330;19.378;2022-12-07T02:17:03;16.55;;;9.13;;
22565;SDS011;11449;51.330;19.378;2022-12-07T02:32:57;18.20;;;10.18;;
22565;SDS011;11449;51.330;19.378;2022-12-07T02:38:19;28.20;;;12.20;;
22565;SDS011;11449;51.330;19.378;2022-12-07T02:43:26;22.70;;;10.88;;
22565;SDS011;11449;51.330;19.378;2022-12-07T02:48:30;26.00;;;11.60;;
22565;SDS011;11449;51.330;19.378;2022-12-07T02:53:38;25.20;;;12.47;;
22565;SDS011;11449;51.330;19.378;2022-12-07T02:59:17;20.15;;;12.10;;
22565;SDS011;11449;51.330;19.378;2022-12-07T03:09:22;18.50;;;9.68;;
22565;SDS011;11449;51.330;19.378;2022-12-07T03:14:26;16.15;;;9.48;;
22565;SDS011;11449;51.330;19.378;2022-12-07T03:19:33;15.35;;;9.60;;
22565;SDS011;11449;51.330;19.378;2022-12-07T03:24:47;17.67;;;9.75;;
22565;SDS011;11449;51.330;19.378;2022-12-07T03:29:45;14.98;;;8.68;;
22565;SDS011;11449;51.330;19.378;2022-12-07T03:34:53;18.45;;;9.30;;
22565;SDS011;11449;51.330;19.378;2022-12-07T03:40:02;16.00;;;8.83;;
22565;SDS011;11449;51.330;19.378;2022-12-07T03:45:07;10.95;;;7.12;;
22565;SDS011;11449;51.330;19.378;2022-12-07T03:55:35;9.90;;;6.90;;
22565;SDS011;11449;51.330;19.378;2022-12-07T04:00:40;21.17;;;8.65;;
22565;SDS011;11449;51.330;19.378;2022-12-07T04:05:42;10.80;;;6.60;;
22565;SDS011;11449;51.330;19.378;2022-12-07T04:10:45;11.12;;;6.03;;
22565;SDS011;11449;51.330;19.378;2022-12-07T04:15:46;9.63;;;5.62;;
22565;SDS011;11449;51.330;19.378;2022-12-07T04:20:47;8.13;;;5.37;;
22565;SDS011;11449;51.330;19.378;2022-12-07T04:25:48;10.65;;;5.58;;
22565;SDS011;11449;51.330;19.378;2022-12-07T04:30:49;6.78;;;4.22;;
22565;SDS011;11449;51.330;19.378;2022-12-07T04:35:50;5.67;;;3.75;;
22565;SDS011;11449;51.330;19.378;2022-12-07T04:40:51;6.03;;;4.05;;
22565;SDS011;11449;51.330;19.378;2022-12-07T04:45:52;8.45;;;4.37;;
22565;SDS011;11449;51.330;19.378;2022-12-07T04:50:53;9.10;;;4.12;;
22565;SDS011;11449;51.330;19.378;2022-12-07T04:55:55;10.93;;;5.12;;
22565;SDS011;11449;51.330;19.378;2022-12-07T05:00:56;5.92;;;3.98;;
22565;SDS011;11449;51.330;19.378;2022-12-07T05:05:57;6.30;;;3.98;;
22565;SDS011;11449;51.330;19.378;2022-12-07T05:10:58;5.70;;;3.58;;
22565;SDS011;11449;51.330;19.378;2022-12-07T05:16:00;5.60;;;3.67;;
22565;SDS011;11449;51.330;19.378;2022-12-07T05:21:01;7.30;;;4.05;;
22565;SDS011;11449;51.330;19.378;2022-12-07T05:26:02;7.00;;;4.40;;
22565;SDS011;11449;51.330;19.378;2022-12-07T05:31:03;6.97;;;4.50;;
22565;SDS011;11449;51.330;19.378;2022-12-07T05:36:05;10.23;;;5.83;;
22565;SDS011;11449;51.330;19.378;2022-12-07T05:41:08;7.87;;;4.83;;
22565;SDS011;11449;51.330;19.378;2022-12-07T05:46:14;11.22;;;6.92;;
22565;SDS011;11449;51.330;19.378;2022-12-07T05:51:15;6.95;;;4.45;;
22565;SDS011;11449;51.330;19.378;2022-12-07T05:56:17;5.25;;;3.80;;
22565;SDS011;11449;51.330;19.378;2022-12-07T06:01:18;10.70;;;5.50;;
22565;SDS011;11449;51.330;19.378;2022-12-07T06:06:19;7.67;;;4.70;;
22565;SDS011;11449;51.330;19.378;2022-12-07T06:11:20;9.45;;;5.53;;
22565;SDS011;11449;51.330;19.378;2022-12-07T06:16:39;6.92;;;4.87;;
22565;SDS011;11449;51.330;19.378;2022-12-07T06:21:40;7.30;;;5.08;;
22565;SDS011;11449;51.330;19.378;2022-12-07T06:26:42;7.72;;;4.78;;
22565;SDS011;11449;51.330;19.378;2022-12-07T06:31:43;7.40;;;4.80;;
22565;SDS011;11449;51.330;19.378;2022-12-07T06:36:44;6.40;;;4.30;;
22565;SDS011;11449;51.330;19.378;2022-12-07T06:41:49;8.33;;;4.60;;
22565;SDS011;11449;51.330;19.378;2022-12-07T06:46:52;10.25;;;5.42;;
22565;SDS011;11449;51.330;19.378;2022-12-07T06:51:54;7.08;;;4.20;;
22565;SDS011;11449;51.330;19.378;2022-12-07T06:56:55;9.18;;;4.65;;
22565;SDS011;11449;51.330;19.378;2022-12-07T07:01:56;10.65;;;5.60;;
22565;SDS011;11449;51.330;19.378;2022-12-07T07:06:57;12.78;;;5.67;;
22565;SDS011;11449;51.330;19.378;2022-12-07T07:11:58;39.35;;;17.00;;
22565;SDS011;11449;51.330;19.378;2022-12-07T07:16:59;31.48;;;12.65;;
22565;SDS011;11449;51.330;19.378;2022-12-07T07:22:00;16.80;;;10.32;;
22565;SDS011;11449;51.330;19.378;2022-12-07T07:27:01;24.57;;;10.82;;
22565;SDS011;11449;51.330;19.378;2022-12-07T07:32:02;22.62;;;10.60;;
22565;SDS011;11449;51.330;19.378;2022-12-07T07:37:03;8.88;;;5.65;;
22565;SDS011;11449;51.330;19.378;2022-12-07T07:42:05;9.25;;;5.37;;
22565;SDS011;11449;51.330;19.378;2022-12-07T07:47:08;13.62;;;6.67;;
22565;SDS011;11449;51.330;19.378;2022-12-07T07:52:09;10.03;;;5.62;;
22565;SDS011;11449;51.330;19.378;2022-12-07T07:57:10;5.37;;;3.72;;
22565;SDS011;11449;51.330;19.378;2022-12-07T08:02:18;18.42;;;8.70;;
22565;SDS011;11449;51.330;19.378;2022-12-07T08:07:20;19.17;;;7.50;;
22565;SDS011;11449;51.330;19.378;2022-12-07T08:12:21;15.80;;;6.60;;
22565;SDS011;11449;51.330;19.378;2022-12-07T08:17:22;17.95;;;8.45;;
22565;SDS011;11449;51.330;19.378;2022-12-07T08:22:23;14.35;;;6.10;;
22565;SDS011;11449;51.330;19.378;2022-12-07T08:27:24;18.67;;;7.58;;
22565;SDS011;11449;51.330;19.378;2022-12-07T08:32:27;17.12;;;8.25;;
22565;SDS011;11449;51.330;19.378;2022-12-07T08:37:28;25.92;;;10.23;;
22565;SDS011;11449;51.330;19.378;2022-12-07T08:42:29;31.15;;;14.53;;
22565;SDS011;11449;51.330;19.378;2022-12-07T08:47:33;16.65;;;9.73;;
22565;SDS011;11449;51.330;19.378;2022-12-07T08:52:36;9.33;;;5.75;;
22565;SDS011;11449;51.330;19.378;2022-12-07T08:57:38;12.60;;;8.83;;
22565;SDS011;11449;51.330;19.378;2022-12-07T09:02:40;4.45;;;3.47;;
22565;SDS011;11449;51.330;19.378;2022-12-07T09:07:41;5.47;;;3.95;;
22565;SDS011;11449;51.330;19.378;2022-12-07T09:12:45;6.45;;;4.30;;
22565;SDS011;11449;51.330;19.378;2022-12-07T09:17:46;7.05;;;4.90;;
22565;SDS011;11449;51.330;19.378;2022-12-07T09:22:47;7.95;;;5.28;;
22565;SDS011;11449;51.330;19.378;2022-12-07T09:27:54;5.45;;;3.85;;
22565;SDS011;11449;51.330;19.378;2022-12-07T09:32:58;8.90;;;5.70;;
22565;SDS011;11449;51.330;19.378;2022-12-07T09:37:59;11.48;;;6.22;;
22565;SDS011;11449;51.330;19.378;2022-12-07T09:43:00;10.80;;;6.50;;
22565;SDS011;11449;51.330;19.378;2022-12-07T09:48:04;8.93;;;5.45;;
22565;SDS011;11449;51.330;19.378;2022-12-07T09:53:12;8.20;;;5.42;;
22565;SDS011;11449;51.330;19.378;2022-12-07T10:03:20;9.63;;;6.00;;
22565;SDS011;11449;51.330;19.378;2022-12-07T10:08:21;14.50;;;8.08;;
22565;SDS011;11449;51.330;19.378;2022-12-07T10:13:33;12.55;;;7.92;;
22565;SDS011;11449;51.330;19.378;2022-12-07T10:18:37;17.12;;;11.15;;
22565;SDS011;11449;51.330;19.378;2022-12-07T10:23:42;24.85;;;13.03;;
22565;SDS011;11449;51.330;19.378;2022-12-07T10:29:21;22.80;;;14.80;;
22565;SDS011;11449;51.330;19.378;2022-12-07T10:34:26;16.55;;;10.70;;
22565;SDS011;11449;51.330;19.378;2022-12-07T10:39:32;16.45;;;10.88;;
22565;SDS011;11449;51.330;19.378;2022-12-07T10:44:42;19.75;;;11.18;;
22565;SDS011;11449;51.330;19.378;2022-12-07T10:50:02;14.98;;;9.35;;
22565;SDS011;11449;51.330;19.378;2022-12-07T10:55:08;17.65;;;10.72;;
22565;SDS011;11449;51.330;19.378;2022-12-07T11:26:18;15.10;;;9.03;;
22565;SDS011;11449;51.330;19.378;2022-12-07T11:31:30;15.98;;;9.60;;
22565;SDS011;11449;51.330;19.378;2022-12-07T11:36:49;17.60;;;10.50;;
22565;SDS011;11449;51.330;19.378;2022-12-07T11:41:55;15.15;;;9.75;;
22565;SDS011;11449;51.330;19.378;2022-12-07T11:57:33;10.93;;;6.30;;
22565;SDS011;11449;51.330;19.378;2022-12-07T12:02:42;15.03;;;8.45;;
22565;SDS011;11449;51.330;19.378;2022-12-07T12:07:44;18.25;;;9.80;;
22565;SDS011;11449;51.330;19.378;2022-12-07T12:12:59;15.50;;;8.63;;
22565;SDS011;11449;51.330;19.378;2022-12-07T12:18:15;19.52;;;11.10;;
22565;SDS011;11449;51.330;19.378;2022-12-07T12:23:23;13.75;;;8.13;;
22565;SDS011;11449;51.330;19.378;2022-12-07T12:54:30;20.35;;;10.00;;
22565;SDS011;11449;51.330;19.378;2022-12-07T13:04:59;18.52;;;10.25;;
22565;SDS011;11449;51.330;19.378;2022-12-07T13:20:47;22.32;;;12.15;;
22565;SDS011;11449;51.330;19.378;2022-12-07T13:36:36;20.68;;;12.23;;
22565;SDS011;11449;51.330;19.378;2022-12-07T13:41:41;30.62;;;14.28;;
22565;SDS011;11449;51.330;19.378;2022-12-07T13:46:53;26.87;;;13.50;;
22565;SDS011;11449;51.330;19.378;2022-12-07T13:52:16;28.00;;;13.75;;
22565;SDS011;11449;51.330;19.378;2022-12-07T13:57:19;28.60;;;13.62;;
22565;SDS011;11449;51.330;19.378;2022-12-07T14:02:22;26.62;;;13.28;;
22565;SDS011;11449;51.330;19.378;2022-12-07T14:07:31;26.60;;;14.05;;
22565;SDS011;11449;51.330;19.378;2022-12-07T14:12:36;37.75;;;18.15;;
22565;SDS011;11449;51.330;19.378;2022-12-07T14:17:38;23.00;;;11.00;;
22565;SDS011;11449;51.330;19.378;2022-12-07T14:22:42;18.20;;;10.05;;
22565;SDS011;11449;51.330;19.378;2022-12-07T14:33:03;16.40;;;8.70;;
22565;SDS011;11449;51.330;19.378;2022-12-07T14:38:02;18.50;;;11.20;;
22565;SDS011;11449;51.330;19.378;2022-12-07T14:43:04;14.90;;;9.73;;
22565;SDS011;11449;51.330;19.378;2022-12-07T14:48:10;15.90;;;9.25;;
22565;SDS011;11449;51.330;19.378;2022-12-07T14:53:13;15.68;;;9.20;;
22565;SDS011;11449;51.330;19.378;2022-12-07T14:58:17;61.08;;;30.77;;
22565;SDS011;11449;51.330;19.378;2022-12-07T15:03:18;17.85;;;9.55;;
22565;SDS011;11449;51.330;19.378;2022-12-07T15:08:19;18.10;;;9.98;;
22565;SDS011;11449;51.330;19.378;2022-12-07T15:13:20;19.17;;;12.20;;
22565;SDS011;11449;51.330;19.378;2022-12-07T15:18:40;18.37;;;11.08;;
22565;SDS011;11449;51.330;19.378;2022-12-07T15:23:41;17.85;;;11.78;;
22565;SDS011;11449;51.330;19.378;2022-12-07T15:28:42;17.32;;;12.10;;
22565;SDS011;11449;51.330;19.378;2022-12-07T15:33:44;17.95;;;9.50;;
22565;SDS011;11449;51.330;19.378;2022-12-07T15:38:45;13.65;;;7.70;;
22565;SDS011;11449;51.330;19.378;2022-12-07T15:43:46;18.95;;;12.28;;
22565;SDS011;11449;51.330;19.378;2022-12-07T15:49:16;21.05;;;11.50;;
22565;SDS011;11449;51.330;19.378;2022-12-07T15:54:19;28.90;;;14.05;;
22565;SDS011;11449;51.330;19.378;2022-12-07T15:59:22;21.30;;;11.78;;
22565;SDS011;11449;51.330;19.378;2022-12-07T16:04:24;14.23;;;7.67;;
22565;SDS011;11449;51.330;19.378;2022-12-07T16:09:27;20.08;;;9.83;;
22565;SDS011;11449;51.330;19.378;2022-12-07T16:14:28;25.20;;;12.77;;
22565;SDS011;11449;51.330;19.378;2022-12-07T16:19:29;23.20;;;10.73;;
22565;SDS011;11449;51.330;19.378;2022-12-07T16:24:31;19.07;;;9.70;;
22565;SDS011;11449;51.330;19.378;2022-12-07T16:29:33;26.90;;;12.63;;
22565;SDS011;11449;51.330;19.378;2022-12-07T16:34:34;20.93;;;9.27;;
22565;SDS011;11449;51.330;19.378;2022-12-07T16:39:36;23.18;;;10.60;;
22565;SDS011;11449;51.330;19.378;2022-12-07T16:44:37;17.30;;;8.83;;
22565;SDS011;11449;51.330;19.378;2022-12-07T16:49:39;14.97;;;8.10;;
22565;SDS011;11449;51.330;19.378;2022-12-07T16:54:40;16.20;;;8.97;;
22565;SDS011;11449;51.330;19.378;2022-12-07T16:59:41;14.87;;;9.23;;
22565;SDS011;11449;51.330;19.378;2022-12-07T17:04:42;18.60;;;10.10;;
22565;SDS011;11449;51.330;19.378;2022-12-07T17:09:43;16.63;;;8.37;;
